sensor_id;sensor_type;location;lat;lon;timestamp;P1;durP1;ratioP1;P2;durP2;ratioP2
9461;SDS011;4769;42.660;23.262;2023-08-01T00:02:24;2.70;;;2.50;;
9461;SDS011;4769;42.660;23.262;2023-08-01T00:04:49;2.63;;;2.42;;
9461;SDS011;4769;42.660;23.262;2023-08-01T00:07:18;2.70;;;2.50;;
9461;SDS011;4769;42.660;23.262;2023-08-01T00:09:43;3.40;;;2.33;;
9461;SDS011;4769;42.660;23.262;2023-08-01T00:12:09;2.80;;;2.60;;
9461;SDS011;4769;42.660;23.262;2023-08-01T00:14:35;2.85;;;2.60;;
9461;SDS011;4769;42.660;23.262;2023-08-01T00:17:01;4.28;;;2.42;;
9461;SDS011;4769;42.660;23.262;2023-08-01T00:19:27;3.10;;;2.42;;
9461;SDS011;4769;42.660;23.262;2023-08-01T00:21:53;2.80;;;2.60;;
9461;SDS011;4769;42.660;23.262;2023-08-01T00:24:21;2.78;;;2.58;;
9461;SDS011;4769;42.660;23.262;2023-08-01T00:26:48;2.75;;;2.38;;
9461;SDS011;4769;42.660;23.262;2023-08-01T00:29:14;4.63;;;2.50;;
9461;SDS011;4769;42.660;23.262;2023-08-01T00:31:39;3.25;;;2.33;;
9461;SDS011;4769;42.660;23.262;2023-08-01T00:34:05;2.88;;;2.55;;
9461;SDS011;4769;42.660;23.262;2023-08-01T00:36:31;2.70;;;2.50;;
9461;SDS011;4769;42.660;23.262;2023-08-01T00:38:57;3.85;;;2.38;;
9461;SDS011;4769;42.660;23.262;2023-08-01T00:41:25;2.85;;;2.58;;
9461;SDS011;4769;42.660;23.262;2023-08-01T00:43:51;4.00;;;2.40;;
9461;SDS011;4769;42.660;23.262;2023-08-01T00:46:16;2.97;;;2.67;;
9461;SDS011;4769;42.660;23.262;2023-08-01T00:48:42;3.90;;;2.55;;
9461;SDS011;4769;42.660;23.262;2023-08-01T00:51:08;2.63;;;2.30;;
9461;SDS011;4769;42.660;23.262;2023-08-01T00:53:34;2.85;;;2.25;;
9461;SDS011;4769;42.660;23.262;2023-08-01T00:56:01;2.85;;;2.53;;
9461;SDS011;4769;42.660;23.262;2023-08-01T00:58:29;2.80;;;2.50;;
9461;SDS011;4769;42.660;23.262;2023-08-01T01:00:55;2.47;;;2.28;;
9461;SDS011;4769;42.660;23.262;2023-08-01T01:03:21;3.20;;;2.35;;
9461;SDS011;4769;42.660;23.262;2023-08-01T01:05:47;2.65;;;2.28;;
9461;SDS011;4769;42.660;23.262;2023-08-01T01:08:18;3.33;;;2.45;;
9461;SDS011;4769;42.660;23.262;2023-08-01T01:10:44;4.05;;;2.70;;
9461;SDS011;4769;42.660;23.262;2023-08-01T01:13:10;4.35;;;2.42;;
9461;SDS011;4769;42.660;23.262;2023-08-01T01:15:38;2.70;;;2.50;;
9461;SDS011;4769;42.660;23.262;2023-08-01T01:18:04;2.72;;;2.47;;
9461;SDS011;4769;42.660;23.262;2023-08-01T01:20:33;3.47;;;2.53;;
9461;SDS011;4769;42.660;23.262;2023-08-01T01:22:59;3.80;;;2.60;;
9461;SDS011;4769;42.660;23.262;2023-08-01T01:25:26;2.83;;;2.58;;
9461;SDS011;4769;42.660;23.262;2023-08-01T01:27:53;3.28;;;2.45;;
9461;SDS011;4769;42.660;23.262;2023-08-01T01:30:19;2.75;;;2.53;;
9461;SDS011;4769;42.660;23.262;2023-08-01T01:32:46;2.83;;;2.50;;
9461;SDS011;4769;42.660;23.262;2023-08-01T01:35:13;3.03;;;2.53;;
9461;SDS011;4769;42.660;23.262;2023-08-01T01:37:41;4.15;;;2.78;;
9461;SDS011;4769;42.660;23.262;2023-08-01T01:40:07;3.72;;;2.40;;
9461;SDS011;4769;42.660;23.262;2023-08-01T01:42:34;3.42;;;2.60;;
9461;SDS011;4769;42.660;23.262;2023-08-01T01:44:59;2.60;;;2.40;;
9461;SDS011;4769;42.660;23.262;2023-08-01T01:47:25;2.63;;;2.08;;
9461;SDS011;4769;42.660;23.262;2023-08-01T01:49:51;4.85;;;2.72;;
9461;SDS011;4769;42.660;23.262;2023-08-01T01:52:16;2.42;;;2.22;;
9461;SDS011;4769;42.660;23.262;2023-08-01T01:54:45;3.22;;;2.63;;
9461;SDS011;4769;42.660;23.262;2023-08-01T01:57:10;3.13;;;2.83;;
9461;SDS011;4769;42.660;23.262;2023-08-01T01:59:36;2.92;;;2.72;;
9461;SDS011;4769;42.660;23.262;2023-08-01T02:02:02;2.97;;;2.42;;
9461;SDS011;4769;42.660;23.262;2023-08-01T02:04:27;2.83;;;2.63;;
9461;SDS011;4769;42.660;23.262;2023-08-01T02:06:53;3.83;;;2.53;;
9461;SDS011;4769;42.660;23.262;2023-08-01T02:09:19;2.60;;;2.40;;
9461;SDS011;4769;42.660;23.262;2023-08-01T02:11:47;3.50;;;2.30;;
9461;SDS011;4769;42.660;23.262;2023-08-01T02:14:13;3.95;;;2.25;;
9461;SDS011;4769;42.660;23.262;2023-08-01T02:16:38;3.22;;;2.60;;
9461;SDS011;4769;42.660;23.262;2023-08-01T02:19:04;2.88;;;2.65;;
9461;SDS011;4769;42.660;23.262;2023-08-01T02:21:30;3.47;;;2.42;;
9461;SDS011;4769;42.660;23.262;2023-08-01T02:23:56;4.15;;;2.88;;
9461;SDS011;4769;42.660;23.262;2023-08-01T02:26:21;2.33;;;2.13;;
9461;SDS011;4769;42.660;23.262;2023-08-01T02:28:50;4.35;;;2.50;;
9461;SDS011;4769;42.660;23.262;2023-08-01T02:31:15;2.72;;;2.50;;
9461;SDS011;4769;42.660;23.262;2023-08-01T02:33:41;4.10;;;2.60;;
9461;SDS011;4769;42.660;23.262;2023-08-01T02:36:07;2.35;;;2.15;;
9461;SDS011;4769;42.660;23.262;2023-08-01T02:38:33;2.70;;;2.38;;
9461;SDS011;4769;42.660;23.262;2023-08-01T02:40:59;3.40;;;2.28;;
9461;SDS011;4769;42.660;23.262;2023-08-01T02:43:24;5.25;;;2.50;;
9461;SDS011;4769;42.660;23.262;2023-08-01T02:45:53;6.28;;;3.10;;
9461;SDS011;4769;42.660;23.262;2023-08-01T02:48:18;4.00;;;2.97;;
9461;SDS011;4769;42.660;23.262;2023-08-01T02:50:45;3.40;;;2.70;;
9461;SDS011;4769;42.660;23.262;2023-08-01T02:53:10;4.88;;;2.60;;
9461;SDS011;4769;42.660;23.262;2023-08-01T02:55:36;2.70;;;2.50;;
9461;SDS011;4769;42.660;23.262;2023-08-01T02:58:02;2.78;;;2.35;;
9461;SDS011;4769;42.660;23.262;2023-08-01T03:00:27;3.25;;;2.75;;
9461;SDS011;4769;42.660;23.262;2023-08-01T03:02:56;2.75;;;2.20;;
9461;SDS011;4769;42.660;23.262;2023-08-01T03:05:21;4.18;;;2.60;;
9461;SDS011;4769;42.660;23.262;2023-08-01T03:07:47;3.97;;;2.67;;
9461;SDS011;4769;42.660;23.262;2023-08-01T03:10:13;2.72;;;2.40;;
9461;SDS011;4769;42.660;23.262;2023-08-01T03:12:38;2.67;;;2.47;;
9461;SDS011;4769;42.660;23.262;2023-08-01T03:15:05;4.30;;;2.30;;
9461;SDS011;4769;42.660;23.262;2023-08-01T03:17:31;2.60;;;2.40;;
9461;SDS011;4769;42.660;23.262;2023-08-01T03:19:59;3.47;;;2.50;;
9461;SDS011;4769;42.660;23.262;2023-08-01T03:22:25;5.45;;;2.58;;
9461;SDS011;4769;42.660;23.262;2023-08-01T03:24:51;3.92;;;2.40;;
9461;SDS011;4769;42.660;23.262;2023-08-01T03:27:16;4.03;;;2.30;;
9461;SDS011;4769;42.660;23.262;2023-08-01T03:29:42;2.70;;;2.50;;
9461;SDS011;4769;42.660;23.262;2023-08-01T03:32:08;2.90;;;2.60;;
9461;SDS011;4769;42.660;23.262;2023-08-01T03:34:33;4.60;;;2.40;;
9461;SDS011;4769;42.660;23.262;2023-08-01T03:37:02;2.50;;;2.30;;
9461;SDS011;4769;42.660;23.262;2023-08-01T03:39:28;4.43;;;2.75;;
9461;SDS011;4769;42.660;23.262;2023-08-01T03:41:54;4.13;;;2.85;;
9461;SDS011;4769;42.660;23.262;2023-08-01T03:44:19;3.85;;;2.78;;
9461;SDS011;4769;42.660;23.262;2023-08-01T03:46:45;2.70;;;2.50;;
9461;SDS011;4769;42.660;23.262;2023-08-01T03:49:11;5.10;;;2.50;;
9461;SDS011;4769;42.660;23.262;2023-08-01T03:51:36;4.18;;;2.55;;
9461;SDS011;4769;42.660;23.262;2023-08-01T03:54:05;5.80;;;2.85;;
9461;SDS011;4769;42.660;23.262;2023-08-01T03:56:30;5.55;;;2.80;;
9461;SDS011;4769;42.660;23.262;2023-08-01T03:58:56;3.40;;;2.70;;
9461;SDS011;4769;42.660;23.262;2023-08-01T04:01:21;3.22;;;2.60;;
9461;SDS011;4769;42.660;23.262;2023-08-01T04:03:47;2.67;;;2.42;;
9461;SDS011;4769;42.660;23.262;2023-08-01T04:06:13;3.53;;;2.50;;
9461;SDS011;4769;42.660;23.262;2023-08-01T04:08:41;3.47;;;2.47;;
9461;SDS011;4769;42.660;23.262;2023-08-01T04:11:09;3.70;;;2.78;;
9461;SDS011;4769;42.660;23.262;2023-08-01T04:13:35;3.88;;;2.67;;
9461;SDS011;4769;42.660;23.262;2023-08-01T04:16:00;5.88;;;2.60;;
9461;SDS011;4769;42.660;23.262;2023-08-01T04:18:26;2.88;;;2.67;;
9461;SDS011;4769;42.660;23.262;2023-08-01T04:20:52;3.55;;;2.85;;
9461;SDS011;4769;42.660;23.262;2023-08-01T04:23:17;3.10;;;2.80;;
9461;SDS011;4769;42.660;23.262;2023-08-01T04:25:43;4.75;;;3.75;;
9461;SDS011;4769;42.660;23.262;2023-08-01T04:28:11;4.15;;;3.20;;
9461;SDS011;4769;42.660;23.262;2023-08-01T04:30:37;4.60;;;3.20;;
9461;SDS011;4769;42.660;23.262;2023-08-01T04:33:03;6.90;;;3.25;;
9461;SDS011;4769;42.660;23.262;2023-08-01T04:35:29;6.88;;;3.72;;
9461;SDS011;4769;42.660;23.262;2023-08-01T04:37:55;5.38;;;3.50;;
9461;SDS011;4769;42.660;23.262;2023-08-01T04:40:21;4.20;;;3.50;;
9461;SDS011;4769;42.660;23.262;2023-08-01T04:42:47;4.93;;;3.67;;
9461;SDS011;4769;42.660;23.262;2023-08-01T04:45:15;8.45;;;3.40;;
9461;SDS011;4769;42.660;23.262;2023-08-01T04:47:41;5.20;;;3.65;;
9461;SDS011;4769;42.660;23.262;2023-08-01T04:50:07;7.90;;;3.58;;
9461;SDS011;4769;42.660;23.262;2023-08-01T04:52:33;5.13;;;3.63;;
9461;SDS011;4769;42.660;23.262;2023-08-01T04:54:59;6.80;;;3.65;;
9461;SDS011;4769;42.660;23.262;2023-08-01T04:57:24;6.68;;;3.95;;
9461;SDS011;4769;42.660;23.262;2023-08-01T04:59:50;5.22;;;3.70;;
9461;SDS011;4769;42.660;23.262;2023-08-01T05:02:18;5.35;;;3.42;;
9461;SDS011;4769;42.660;23.262;2023-08-01T05:04:44;8.30;;;4.15;;
9461;SDS011;4769;42.660;23.262;2023-08-01T05:07:09;6.55;;;3.67;;
9461;SDS011;4769;42.660;23.262;2023-08-01T05:09:35;4.97;;;3.15;;
9461;SDS011;4769;42.660;23.262;2023-08-01T05:12:01;7.57;;;3.83;;
9461;SDS011;4769;42.660;23.262;2023-08-01T05:14:26;5.07;;;3.88;;
9461;SDS011;4769;42.660;23.262;2023-08-01T05:16:52;6.85;;;3.42;;
9461;SDS011;4769;42.660;23.262;2023-08-01T05:19:20;9.23;;;4.15;;
9461;SDS011;4769;42.660;23.262;2023-08-01T05:21:46;8.95;;;4.13;;
9461;SDS011;4769;42.660;23.262;2023-08-01T05:24:12;7.15;;;3.85;;
9461;SDS011;4769;42.660;23.262;2023-08-01T05:26:37;6.03;;;4.10;;
9461;SDS011;4769;42.660;23.262;2023-08-01T05:29:03;6.57;;;3.83;;
9461;SDS011;4769;42.660;23.262;2023-08-01T05:31:29;4.68;;;3.72;;
9461;SDS011;4769;42.660;23.262;2023-08-01T05:33:54;5.13;;;3.63;;
9461;SDS011;4769;42.660;23.262;2023-08-01T05:36:23;5.57;;;3.47;;
9461;SDS011;4769;42.660;23.262;2023-08-01T05:38:48;5.53;;;3.70;;
9461;SDS011;4769;42.660;23.262;2023-08-01T05:41:14;6.53;;;4.22;;
9461;SDS011;4769;42.660;23.262;2023-08-01T05:43:40;8.77;;;3.90;;
9461;SDS011;4769;42.660;23.262;2023-08-01T05:46:05;6.95;;;4.70;;
9461;SDS011;4769;42.660;23.262;2023-08-01T05:48:31;8.50;;;4.43;;
9461;SDS011;4769;42.660;23.262;2023-08-01T05:50:57;6.32;;;3.80;;
9461;SDS011;4769;42.660;23.262;2023-08-01T05:53:25;4.35;;;3.60;;
9461;SDS011;4769;42.660;23.262;2023-08-01T05:55:51;6.93;;;4.07;;
9461;SDS011;4769;42.660;23.262;2023-08-01T05:58:16;5.97;;;3.75;;
9461;SDS011;4769;42.660;23.262;2023-08-01T06:00:42;5.22;;;3.53;;
9461;SDS011;4769;42.660;23.262;2023-08-01T06:03:08;5.80;;;3.38;;
9461;SDS011;4769;42.660;23.262;2023-08-01T06:05:33;4.60;;;3.00;;
9461;SDS011;4769;42.660;23.262;2023-08-01T06:08:00;8.27;;;3.65;;
9461;SDS011;4769;42.660;23.262;2023-08-01T06:10:28;5.05;;;3.42;;
9461;SDS011;4769;42.660;23.262;2023-08-01T06:12:54;5.63;;;2.95;;
9461;SDS011;4769;42.660;23.262;2023-08-01T06:15:20;11.90;;;3.30;;
9461;SDS011;4769;42.660;23.262;2023-08-01T06:17:45;5.50;;;3.03;;
9461;SDS011;4769;42.660;23.262;2023-08-01T06:20:11;4.90;;;3.10;;
9461;SDS011;4769;42.660;23.262;2023-08-01T06:22:37;5.60;;;3.10;;
9461;SDS011;4769;42.660;23.262;2023-08-01T06:25:03;9.40;;;3.40;;
9461;SDS011;4769;42.660;23.262;2023-08-01T06:27:32;5.78;;;3.15;;
9461;SDS011;4769;42.660;23.262;2023-08-01T06:29:58;5.68;;;3.10;;
9461;SDS011;4769;42.660;23.262;2023-08-01T06:32:24;3.53;;;3.00;;
9461;SDS011;4769;42.660;23.262;2023-08-01T06:34:49;3.78;;;2.90;;
9461;SDS011;4769;42.660;23.262;2023-08-01T06:37:15;5.90;;;3.13;;
9461;SDS011;4769;42.660;23.262;2023-08-01T06:39:41;4.93;;;2.83;;
9461;SDS011;4769;42.660;23.262;2023-08-01T06:42:07;3.90;;;3.00;;
9461;SDS011;4769;42.660;23.262;2023-08-01T06:44:35;4.50;;;2.72;;
9461;SDS011;4769;42.660;23.262;2023-08-01T06:47:05;6.93;;;2.70;;
9461;SDS011;4769;42.660;23.262;2023-08-01T06:49:31;3.25;;;2.92;;
9461;SDS011;4769;42.660;23.262;2023-08-01T06:51:56;3.20;;;2.83;;
9461;SDS011;4769;42.660;23.262;2023-08-01T06:54:22;3.63;;;2.80;;
9461;SDS011;4769;42.660;23.262;2023-08-01T06:56:48;5.50;;;3.08;;
9461;SDS011;4769;42.660;23.262;2023-08-01T06:59:13;4.10;;;2.90;;
9461;SDS011;4769;42.660;23.262;2023-08-01T07:01:42;4.75;;;2.80;;
9461;SDS011;4769;42.660;23.262;2023-08-01T07:04:08;4.32;;;2.92;;
9461;SDS011;4769;42.660;23.262;2023-08-01T07:06:34;3.53;;;2.60;;
9461;SDS011;4769;42.660;23.262;2023-08-01T07:08:59;6.05;;;3.08;;
9461;SDS011;4769;42.660;23.262;2023-08-01T07:11:25;3.55;;;2.70;;
9461;SDS011;4769;42.660;23.262;2023-08-01T07:13:51;10.57;;;3.50;;
9461;SDS011;4769;42.660;23.262;2023-08-01T07:16:16;5.15;;;3.42;;
9461;SDS011;4769;42.660;23.262;2023-08-01T07:18:44;5.28;;;2.65;;
9461;SDS011;4769;42.660;23.262;2023-08-01T07:21:10;6.32;;;3.20;;
9461;SDS011;4769;42.660;23.262;2023-08-01T07:23:36;8.23;;;3.92;;
9461;SDS011;4769;42.660;23.262;2023-08-01T07:26:02;5.80;;;3.00;;
9461;SDS011;4769;42.660;23.262;2023-08-01T07:28:28;5.40;;;2.97;;
9461;SDS011;4769;42.660;23.262;2023-08-01T07:31:00;5.10;;;2.60;;
9461;SDS011;4769;42.660;23.262;2023-08-01T07:33:26;5.63;;;3.00;;
9461;SDS011;4769;42.660;23.262;2023-08-01T07:35:54;4.05;;;2.95;;
9461;SDS011;4769;42.660;23.262;2023-08-01T07:38:20;4.40;;;3.22;;
9461;SDS011;4769;42.660;23.262;2023-08-01T07:40:46;5.22;;;2.95;;
9461;SDS011;4769;42.660;23.262;2023-08-01T07:43:11;3.72;;;3.00;;
9461;SDS011;4769;42.660;23.262;2023-08-01T07:45:37;6.93;;;3.75;;
9461;SDS011;4769;42.660;23.262;2023-08-01T07:48:03;4.35;;;3.10;;
9461;SDS011;4769;42.660;23.262;2023-08-01T07:50:29;4.90;;;3.40;;
9461;SDS011;4769;42.660;23.262;2023-08-01T07:52:57;6.60;;;3.30;;
9461;SDS011;4769;42.660;23.262;2023-08-01T07:55:23;5.40;;;2.70;;
9461;SDS011;4769;42.660;23.262;2023-08-01T07:57:49;3.58;;;3.00;;
9461;SDS011;4769;42.660;23.262;2023-08-01T08:00:15;11.27;;;3.33;;
9461;SDS011;4769;42.660;23.262;2023-08-01T08:02:41;7.20;;;3.05;;
9461;SDS011;4769;42.660;23.262;2023-08-01T08:05:09;9.32;;;3.38;;
9461;SDS011;4769;42.660;23.262;2023-08-01T08:07:35;3.78;;;2.90;;
9461;SDS011;4769;42.660;23.262;2023-08-01T08:10:04;4.47;;;3.22;;
9461;SDS011;4769;42.660;23.262;2023-08-01T08:12:31;4.30;;;2.90;;
9461;SDS011;4769;42.660;23.262;2023-08-01T08:14:57;4.70;;;3.15;;
9461;SDS011;4769;42.660;23.262;2023-08-01T08:17:22;5.25;;;2.88;;
9461;SDS011;4769;42.660;23.262;2023-08-01T08:19:48;6.15;;;2.88;;
9461;SDS011;4769;42.660;23.262;2023-08-01T08:22:14;7.05;;;3.30;;
9461;SDS011;4769;42.660;23.262;2023-08-01T08:24:40;5.25;;;3.05;;
9461;SDS011;4769;42.660;23.262;2023-08-01T08:27:09;7.55;;;3.08;;
9461;SDS011;4769;42.660;23.262;2023-08-01T08:29:35;3.55;;;2.80;;
9461;SDS011;4769;42.660;23.262;2023-08-01T08:32:00;7.07;;;3.53;;
9461;SDS011;4769;42.660;23.262;2023-08-01T08:34:26;4.43;;;3.10;;
9461;SDS011;4769;42.660;23.262;2023-08-01T08:36:52;5.35;;;3.38;;
9461;SDS011;4769;42.660;23.262;2023-08-01T08:39:18;6.20;;;3.10;;
9461;SDS011;4769;42.660;23.262;2023-08-01T08:41:45;3.90;;;3.13;;
9461;SDS011;4769;42.660;23.262;2023-08-01T08:44:14;7.25;;;3.50;;
9461;SDS011;4769;42.660;23.262;2023-08-01T08:46:41;5.25;;;3.50;;
9461;SDS011;4769;42.660;23.262;2023-08-01T08:49:08;4.93;;;3.53;;
9461;SDS011;4769;42.660;23.262;2023-08-01T08:51:34;5.18;;;3.58;;
9461;SDS011;4769;42.660;23.262;2023-08-01T08:54:01;3.90;;;3.55;;
9461;SDS011;4769;42.660;23.262;2023-08-01T08:56:27;5.78;;;3.58;;
9461;SDS011;4769;42.660;23.262;2023-08-01T08:58:54;7.72;;;3.60;;
9461;SDS011;4769;42.660;23.262;2023-08-01T09:01:23;4.70;;;3.28;;
9461;SDS011;4769;42.660;23.262;2023-08-01T09:03:48;4.95;;;3.45;;
9461;SDS011;4769;42.660;23.262;2023-08-01T09:06:14;3.53;;;2.90;;
9461;SDS011;4769;42.660;23.262;2023-08-01T09:08:43;6.97;;;3.20;;
9461;SDS011;4769;42.660;23.262;2023-08-01T09:11:15;3.50;;;3.20;;
9461;SDS011;4769;42.660;23.262;2023-08-01T09:13:40;10.45;;;3.60;;
9461;SDS011;4769;42.660;23.262;2023-08-01T09:16:06;4.32;;;3.40;;
9461;SDS011;4769;42.660;23.262;2023-08-01T09:18:45;8.52;;;3.40;;
9461;SDS011;4769;42.660;23.262;2023-08-01T09:21:12;7.05;;;3.28;;
9461;SDS011;4769;42.660;23.262;2023-08-01T09:23:38;8.23;;;3.10;;
9461;SDS011;4769;42.660;23.262;2023-08-01T09:26:11;4.88;;;3.30;;
9461;SDS011;4769;42.660;23.262;2023-08-01T09:28:37;4.72;;;3.40;;
9461;SDS011;4769;42.660;23.262;2023-08-01T09:31:03;4.18;;;3.38;;
9461;SDS011;4769;42.660;23.262;2023-08-01T09:33:39;5.35;;;3.50;;
9461;SDS011;4769;42.660;23.262;2023-08-01T09:36:06;5.88;;;3.30;;
9461;SDS011;4769;42.660;23.262;2023-08-01T09:38:33;6.03;;;3.67;;
9461;SDS011;4769;42.660;23.262;2023-08-01T09:41:00;3.83;;;3.53;;
9461;SDS011;4769;42.660;23.262;2023-08-01T09:43:26;4.72;;;3.53;;
9461;SDS011;4769;42.660;23.262;2023-08-01T09:45:58;8.35;;;4.43;;
9461;SDS011;4769;42.660;23.262;2023-08-01T09:48:24;6.78;;;3.58;;
9461;SDS011;4769;42.660;23.262;2023-08-01T09:51:02;7.38;;;3.65;;
9461;SDS011;4769;42.660;23.262;2023-08-01T09:53:29;9.73;;;3.67;;
9461;SDS011;4769;42.660;23.262;2023-08-01T09:55:55;6.07;;;3.72;;
9461;SDS011;4769;42.660;23.262;2023-08-01T09:58:22;5.00;;;3.95;;
9461;SDS011;4769;42.660;23.262;2023-08-01T10:00:51;4.68;;;3.50;;
9461;SDS011;4769;42.660;23.262;2023-08-01T10:03:17;4.85;;;3.53;;
9461;SDS011;4769;42.660;23.262;2023-08-01T10:05:43;7.00;;;3.80;;
9461;SDS011;4769;42.660;23.262;2023-08-01T10:08:12;4.93;;;3.67;;
9461;SDS011;4769;42.660;23.262;2023-08-01T10:10:39;4.10;;;3.30;;
9461;SDS011;4769;42.660;23.262;2023-08-01T10:13:05;6.72;;;4.15;;
9461;SDS011;4769;42.660;23.262;2023-08-01T10:15:31;4.15;;;3.65;;
9461;SDS011;4769;42.660;23.262;2023-08-01T10:17:57;4.85;;;3.58;;
9461;SDS011;4769;42.660;23.262;2023-08-01T10:20:24;5.43;;;3.22;;
9461;SDS011;4769;42.660;23.262;2023-08-01T10:22:50;4.13;;;3.72;;
9461;SDS011;4769;42.660;23.262;2023-08-01T10:25:20;5.97;;;3.95;;
9461;SDS011;4769;42.660;23.262;2023-08-01T10:27:56;7.47;;;3.40;;
9461;SDS011;4769;42.660;23.262;2023-08-01T10:30:25;5.28;;;3.70;;
9461;SDS011;4769;42.660;23.262;2023-08-01T10:32:54;4.60;;;3.70;;
9461;SDS011;4769;42.660;23.262;2023-08-01T10:35:30;6.78;;;4.20;;
9461;SDS011;4769;42.660;23.262;2023-08-01T10:38:03;3.95;;;3.40;;
9461;SDS011;4769;42.660;23.262;2023-08-01T10:40:35;5.53;;;3.50;;
9461;SDS011;4769;42.660;23.262;2023-08-01T10:43:02;6.05;;;3.42;;
9461;SDS011;4769;42.660;23.262;2023-08-01T10:45:27;2.97;;;2.67;;
9461;SDS011;4769;42.660;23.262;2023-08-01T10:47:53;4.97;;;2.90;;
9461;SDS011;4769;42.660;23.262;2023-08-01T10:50:19;3.33;;;3.03;;
9461;SDS011;4769;42.660;23.262;2023-08-01T10:52:45;2.80;;;2.60;;
9461;SDS011;4769;42.660;23.262;2023-08-01T10:55:11;4.45;;;3.08;;
9461;SDS011;4769;42.660;23.262;2023-08-01T10:57:40;5.20;;;2.80;;
9461;SDS011;4769;42.660;23.262;2023-08-01T11:00:14;2.60;;;2.40;;
9461;SDS011;4769;42.660;23.262;2023-08-01T11:02:41;2.97;;;2.75;;
9461;SDS011;4769;42.660;23.262;2023-08-01T11:05:07;4.90;;;2.75;;
9461;SDS011;4769;42.660;23.262;2023-08-01T11:07:34;4.20;;;2.85;;
9461;SDS011;4769;42.660;23.262;2023-08-01T11:10:07;4.40;;;3.08;;
9461;SDS011;4769;42.660;23.262;2023-08-01T11:12:34;3.20;;;2.85;;
9461;SDS011;4769;42.660;23.262;2023-08-01T11:15:04;5.68;;;2.90;;
9461;SDS011;4769;42.660;23.262;2023-08-01T11:17:32;4.78;;;2.67;;
9461;SDS011;4769;42.660;23.262;2023-08-01T11:20:02;5.60;;;2.90;;
9461;SDS011;4769;42.660;23.262;2023-08-01T11:22:29;2.65;;;2.45;;
9461;SDS011;4769;42.660;23.262;2023-08-01T11:24:57;4.47;;;2.70;;
9461;SDS011;4769;42.660;23.262;2023-08-01T11:27:23;3.60;;;2.50;;
9461;SDS011;4769;42.660;23.262;2023-08-01T11:29:49;4.28;;;2.80;;
9461;SDS011;4769;42.660;23.262;2023-08-01T11:32:17;2.50;;;2.30;;
9461;SDS011;4769;42.660;23.262;2023-08-01T11:34:43;2.60;;;2.40;;
9461;SDS011;4769;42.660;23.262;2023-08-01T11:37:09;2.85;;;2.65;;
9461;SDS011;4769;42.660;23.262;2023-08-01T11:39:35;2.70;;;2.50;;
9461;SDS011;4769;42.660;23.262;2023-08-01T11:42:00;4.57;;;2.53;;
9461;SDS011;4769;42.660;23.262;2023-08-01T11:44:26;2.67;;;2.47;;
9461;SDS011;4769;42.660;23.262;2023-08-01T11:46:52;4.65;;;2.78;;
9461;SDS011;4769;42.660;23.262;2023-08-01T11:49:20;3.30;;;3.03;;
9461;SDS011;4769;42.660;23.262;2023-08-01T11:51:46;5.63;;;3.20;;
9461;SDS011;4769;42.660;23.262;2023-08-01T11:54:13;4.13;;;3.47;;
9461;SDS011;4769;42.660;23.262;2023-08-01T11:56:39;4.15;;;3.75;;
9461;SDS011;4769;42.660;23.262;2023-08-01T11:59:09;4.10;;;3.58;;
9461;SDS011;4769;42.660;23.262;2023-08-01T12:01:37;3.72;;;3.20;;
9461;SDS011;4769;42.660;23.262;2023-08-01T12:04:04;4.50;;;3.50;;
9461;SDS011;4769;42.660;23.262;2023-08-01T12:06:32;4.70;;;2.90;;
9461;SDS011;4769;42.660;23.262;2023-08-01T12:09:05;2.75;;;2.55;;
9461;SDS011;4769;42.660;23.262;2023-08-01T12:11:32;3.92;;;2.50;;
9461;SDS011;4769;42.660;23.262;2023-08-01T12:14:01;4.88;;;2.60;;
9461;SDS011;4769;42.660;23.262;2023-08-01T12:16:27;2.80;;;2.60;;
9461;SDS011;4769;42.660;23.262;2023-08-01T12:18:53;3.30;;;2.53;;
9461;SDS011;4769;42.660;23.262;2023-08-01T12:21:19;2.50;;;2.30;;
9461;SDS011;4769;42.660;23.262;2023-08-01T12:23:47;4.72;;;2.70;;
9461;SDS011;4769;42.660;23.262;2023-08-01T12:26:13;3.58;;;2.60;;
9461;SDS011;4769;42.660;23.262;2023-08-01T12:28:39;3.35;;;2.35;;
9461;SDS011;4769;42.660;23.262;2023-08-01T12:31:05;2.58;;;2.38;;
9461;SDS011;4769;42.660;23.262;2023-08-01T12:33:30;2.40;;;2.20;;
9461;SDS011;4769;42.660;23.262;2023-08-01T12:35:58;2.47;;;2.28;;
9461;SDS011;4769;42.660;23.262;2023-08-01T12:38:24;2.90;;;2.10;;
9461;SDS011;4769;42.660;23.262;2023-08-01T12:40:53;5.35;;;2.22;;
9461;SDS011;4769;42.660;23.262;2023-08-01T12:43:18;4.25;;;2.40;;
9461;SDS011;4769;42.660;23.262;2023-08-01T12:45:44;2.50;;;2.30;;
9461;SDS011;4769;42.660;23.262;2023-08-01T12:48:11;2.70;;;2.50;;
9461;SDS011;4769;42.660;23.262;2023-08-01T12:50:37;2.58;;;2.30;;
9461;SDS011;4769;42.660;23.262;2023-08-01T12:53:02;3.08;;;2.70;;
9461;SDS011;4769;42.660;23.262;2023-08-01T12:55:28;3.72;;;2.83;;
9461;SDS011;4769;42.660;23.262;2023-08-01T12:57:56;3.45;;;2.50;;
9461;SDS011;4769;42.660;23.262;2023-08-01T13:00:22;3.30;;;2.60;;
9461;SDS011;4769;42.660;23.262;2023-08-01T13:02:48;3.70;;;2.47;;
9461;SDS011;4769;42.660;23.262;2023-08-01T13:05:14;6.22;;;3.28;;
9461;SDS011;4769;42.660;23.262;2023-08-01T13:07:39;7.47;;;3.55;;
9461;SDS011;4769;42.660;23.262;2023-08-01T13:10:05;2.97;;;2.50;;
9461;SDS011;4769;42.660;23.262;2023-08-01T13:12:32;30.42;;;4.72;;
9461;SDS011;4769;42.660;23.262;2023-08-01T13:15:00;2.55;;;2.35;;
9461;SDS011;4769;42.660;23.262;2023-08-01T13:17:26;2.63;;;2.35;;
9461;SDS011;4769;42.660;23.262;2023-08-01T13:19:51;3.08;;;2.33;;
9461;SDS011;4769;42.660;23.262;2023-08-01T13:22:17;4.28;;;2.35;;
9461;SDS011;4769;42.660;23.262;2023-08-01T13:24:42;2.40;;;2.20;;
9461;SDS011;4769;42.660;23.262;2023-08-01T13:27:10;3.67;;;2.40;;
9461;SDS011;4769;42.660;23.262;2023-08-01T13:29:36;3.90;;;2.80;;
9461;SDS011;4769;42.660;23.262;2023-08-01T13:32:05;2.75;;;2.30;;
9461;SDS011;4769;42.660;23.262;2023-08-01T13:34:31;2.90;;;2.38;;
9461;SDS011;4769;42.660;23.262;2023-08-01T13:36:57;2.95;;;2.65;;
9461;SDS011;4769;42.660;23.262;2023-08-01T13:39:23;5.20;;;3.53;;
9461;SDS011;4769;42.660;23.262;2023-08-01T13:41:48;4.95;;;3.05;;
9461;SDS011;4769;42.660;23.262;2023-08-01T13:44:14;7.30;;;3.75;;
9461;SDS011;4769;42.660;23.262;2023-08-01T13:46:40;3.65;;;2.88;;
9461;SDS011;4769;42.660;23.262;2023-08-01T13:49:08;3.50;;;2.42;;
9461;SDS011;4769;42.660;23.262;2023-08-01T13:51:34;2.88;;;2.58;;
9461;SDS011;4769;42.660;23.262;2023-08-01T13:53:59;2.75;;;2.35;;
9461;SDS011;4769;42.660;23.262;2023-08-01T13:56:25;2.85;;;2.33;;
9461;SDS011;4769;42.660;23.262;2023-08-01T13:58:51;2.72;;;2.53;;
9461;SDS011;4769;42.660;23.262;2023-08-01T14:01:17;2.72;;;2.45;;
9461;SDS011;4769;42.660;23.262;2023-08-01T14:03:43;2.78;;;2.50;;
9461;SDS011;4769;42.660;23.262;2023-08-01T14:06:12;2.70;;;2.50;;
9461;SDS011;4769;42.660;23.262;2023-08-01T14:08:39;3.85;;;2.45;;
9461;SDS011;4769;42.660;23.262;2023-08-01T14:11:06;2.88;;;2.50;;
9461;SDS011;4769;42.660;23.262;2023-08-01T14:13:33;3.15;;;2.50;;
9461;SDS011;4769;42.660;23.262;2023-08-01T14:16:00;2.58;;;2.38;;
9461;SDS011;4769;42.660;23.262;2023-08-01T14:18:27;2.78;;;2.58;;
9461;SDS011;4769;42.660;23.262;2023-08-01T14:20:52;2.47;;;2.38;;
9461;SDS011;4769;42.660;23.262;2023-08-01T14:23:21;4.30;;;2.65;;
9461;SDS011;4769;42.660;23.262;2023-08-01T14:25:47;2.65;;;2.45;;
9461;SDS011;4769;42.660;23.262;2023-08-01T14:28:13;8.27;;;3.65;;
9461;SDS011;4769;42.660;23.262;2023-08-01T14:30:39;4.63;;;3.00;;
9461;SDS011;4769;42.660;23.262;2023-08-01T14:33:06;3.75;;;2.67;;
9461;SDS011;4769;42.660;23.262;2023-08-01T14:35:33;3.90;;;3.10;;
9461;SDS011;4769;42.660;23.262;2023-08-01T14:37:58;3.80;;;2.72;;
9461;SDS011;4769;42.660;23.262;2023-08-01T14:40:27;2.83;;;2.58;;
9461;SDS011;4769;42.660;23.262;2023-08-01T14:42:53;3.42;;;2.72;;
9461;SDS011;4769;42.660;23.262;2023-08-01T14:45:18;3.65;;;2.80;;
9461;SDS011;4769;42.660;23.262;2023-08-01T14:47:44;3.17;;;2.60;;
9461;SDS011;4769;42.660;23.262;2023-08-01T14:50:10;3.00;;;2.70;;
9461;SDS011;4769;42.660;23.262;2023-08-01T14:52:36;3.00;;;2.80;;
9461;SDS011;4769;42.660;23.262;2023-08-01T14:55:02;3.47;;;2.83;;
9461;SDS011;4769;42.660;23.262;2023-08-01T14:57:31;3.05;;;2.75;;